sensor_id;sensor_type;location;lat;lon;timestamp;pressure;altitude;pressure_sealevel;temperature;humidity
27040;BME280;14589;51.578;7.306;2024-01-27T00:01:35;102918.84;;;3.06;100.00
27040;BME280;14589;51.578;7.306;2024-01-27T00:04:06;102925.97;;;3.07;100.00
27040;BME280;14589;51.578;7.306;2024-01-27T00:06:36;102920.78;;;3.01;100.00
27040;BME280;14589;51.578;7.306;2024-01-27T00:09:06;102926.31;;;2.95;100.00
27040;BME280;14589;51.578;7.306;2024-01-27T00:11:37;102922.66;;;2.97;100.00
27040;BME280;14589;51.578;7.306;2024-01-27T00:14:07;102911.22;;;2.92;100.00
27040;BME280;14589;51.578;7.306;2024-01-27T00:16:37;102906.06;;;2.84;100.00
27040;BME280;14589;51.578;7.306;2024-01-27T00:19:08;102922.03;;;2.89;100.00
27040;BME280;14589;51.578;7.306;2024-01-27T00:21:38;102914.06;;;2.86;100.00
27040;BME280;14589;51.578;7.306;2024-01-27T00:24:09;102936.38;;;2.87;100.00
27040;BME280;14589;51.578;7.306;2024-01-27T00:26:39;102928.53;;;2.80;100.00
27040;BME280;14589;51.578;7.306;2024-01-27T00:29:09;102942.66;;;2.85;100.00
27040;BME280;14589;51.578;7.306;2024-01-27T00:31:40;102957.16;;;2.78;100.00
27040;BME280;14589;51.578;7.306;2024-01-27T00:34:10;102964.19;;;2.82;100.00
27040;BME280;14589;51.578;7.306;2024-01-27T00:36:41;102958.94;;;2.78;100.00
27040;BME280;14589;51.578;7.306;2024-01-27T00:39:16;102966.25;;;2.73;100.00
27040;BME280;14589;51.578;7.306;2024-01-27T00:41:47;102968.00;;;2.74;100.00
27040;BME280;14589;51.578;7.306;2024-01-27T00:44:17;102967.28;;;2.69;100.00
27040;BME280;14589;51.578;7.306;2024-01-27T00:46:48;102971.75;;;2.68;100.00
27040;BME280;14589;51.578;7.306;2024-01-27T00:49:18;102978.94;;;2.66;100.00
27040;BME280;14589;51.578;7.306;2024-01-27T00:51:48;102972.78;;;2.63;100.00
27040;BME280;14589;51.578;7.306;2024-01-27T00:54:19;102987.81;;;2.68;100.00
27040;BME280;14589;51.578;7.306;2024-01-27T00:56:49;102971.00;;;2.63;100.00
27040;BME280;14589;51.578;7.306;2024-01-27T00:59:20;102966.56;;;2.62;100.00
27040;BME280;14589;51.578;7.306;2024-01-27T01:01:50;102969.44;;;2.55;100.00
27040;BME280;14589;51.578;7.306;2024-01-27T01:04:21;102977.44;;;2.56;100.00
27040;BME280;14589;51.578;7.306;2024-01-27T01:06:51;102960.59;;;2.53;100.00
27040;BME280;14589;51.578;7.306;2024-01-27T01:09:22;102973.72;;;2.62;100.00
27040;BME280;14589;51.578;7.306;2024-01-27T01:11:52;102957.94;;;2.51;100.00
27040;BME280;14589;51.578;7.306;2024-01-27T01:14:23;102975.00;;;2.47;100.00
27040;BME280;14589;51.578;7.306;2024-01-27T01:16:53;102989.28;;;2.48;100.00
27040;BME280;14589;51.578;7.306;2024-01-27T01:19:24;102976.91;;;2.43;100.00
27040;BME280;14589;51.578;7.306;2024-01-27T01:21:54;102982.19;;;2.47;100.00
27040;BME280;14589;51.578;7.306;2024-01-27T01:24:24;102974.25;;;2.42;100.00
27040;BME280;14589;51.578;7.306;2024-01-27T01:26:55;102972.59;;;2.38;100.00
27040;BME280;14589;51.578;7.306;2024-01-27T01:29:26;102969.19;;;2.31;100.00
27040;BME280;14589;51.578;7.306;2024-01-27T01:31:56;102982.44;;;2.36;100.00
27040;BME280;14589;51.578;7.306;2024-01-27T01:34:26;102988.81;;;2.32;100.00
27040;BME280;14589;51.578;7.306;2024-01-27T01:36:57;102974.69;;;2.27;100.00
27040;BME280;14589;51.578;7.306;2024-01-27T01:39:27;102971.91;;;2.30;100.00
27040;BME280;14589;51.578;7.306;2024-01-27T01:41:58;102979.19;;;2.25;100.00
27040;BME280;14589;51.578;7.306;2024-01-27T01:44:30;102972.91;;;2.26;100.00
27040;BME280;14589;51.578;7.306;2024-01-27T01:47:01;102981.06;;;2.21;100.00
27040;BME280;14589;51.578;7.306;2024-01-27T01:49:33;102981.06;;;2.21;100.00
27040;BME280;14589;51.578;7.306;2024-01-27T01:52:04;102979.34;;;2.19;100.00
27040;BME280;14589;51.578;7.306;2024-01-27T01:54:35;102987.31;;;2.22;100.00
27040;BME280;14589;51.578;7.306;2024-01-27T01:57:06;102984.84;;;2.13;100.00
27040;BME280;14589;51.578;7.306;2024-01-27T01:59:36;102982.22;;;2.11;100.00
27040;BME280;14589;51.578;7.306;2024-01-27T02:02:12;102973.56;;;2.01;100.00
27040;BME280;14589;51.578;7.306;2024-01-27T02:04:43;102992.16;;;2.06;100.00
27040;BME280;14589;51.578;7.306;2024-01-27T02:07:14;102978.16;;;1.96;100.00
27040;BME280;14589;51.578;7.306;2024-01-27T02:09:44;102976.34;;;1.97;100.00
27040;BME280;14589;51.578;7.306;2024-01-27T02:12:14;102981.72;;;1.95;100.00
27040;BME280;14589;51.578;7.306;2024-01-27T02:14:45;102985.31;;;1.94;100.00
27040;BME280;14589;51.578;7.306;2024-01-27T02:17:15;102981.91;;;1.88;100.00
27040;BME280;14589;51.578;7.306;2024-01-27T02:19:45;102970.31;;;1.89;100.00
27040;BME280;14589;51.578;7.306;2024-01-27T02:22:16;102981.13;;;1.84;100.00
27040;BME280;14589;51.578;7.306;2024-01-27T02:24:46;102989.97;;;1.86;100.00
27040;BME280;14589;51.578;7.306;2024-01-27T02:27:17;102986.38;;;1.87;100.00
27040;BME280;14589;51.578;7.306;2024-01-27T02:29:47;102986.38;;;1.87;100.00
27040;BME280;14589;51.578;7.306;2024-01-27T02:32:18;102994.34;;;1.90;100.00
27040;BME280;14589;51.578;7.306;2024-01-27T02:34:48;102981.88;;;1.89;100.00
27040;BME280;14589;51.578;7.306;2024-01-27T02:37:18;102987.28;;;1.86;100.00
27040;BME280;14589;51.578;7.306;2024-01-27T02:39:49;102989.16;;;1.84;100.00
27040;BME280;14589;51.578;7.306;2024-01-27T02:42:20;102984.75;;;1.82;100.00
27040;BME280;14589;51.578;7.306;2024-01-27T02:44:50;102983.81;;;1.84;100.00
27040;BME280;14589;51.578;7.306;2024-01-27T02:47:20;102986.50;;;1.83;100.00
27040;BME280;14589;51.578;7.306;2024-01-27T02:49:51;102980.28;;;1.82;100.00
27040;BME280;14589;51.578;7.306;2024-01-27T02:52:21;102981.28;;;1.78;100.00
27040;BME280;14589;51.578;7.306;2024-01-27T02:54:52;102985.00;;;1.71;100.00
27040;BME280;14589;51.578;7.306;2024-01-27T02:57:22;102985.00;;;1.71;100.00
27040;BME280;14589;51.578;7.306;2024-01-27T02:59:52;102987.59;;;1.74;100.00
27040;BME280;14589;51.578;7.306;2024-01-27T03:02:23;102989.44;;;1.72;100.00
27040;BME280;14589;51.578;7.306;2024-01-27T03:04:53;103008.22;;;1.69;100.00
27040;BME280;14589;51.578;7.306;2024-01-27T03:07:24;102996.75;;;1.64;100.00
27040;BME280;14589;51.578;7.306;2024-01-27T03:09:54;102990.50;;;1.65;100.00
27040;BME280;14589;51.578;7.306;2024-01-27T03:12:24;102980.78;;;1.61;100.00
27040;BME280;14589;51.578;7.306;2024-01-27T03:14:55;102985.31;;;1.59;100.00
27040;BME280;14589;51.578;7.306;2024-01-27T03:17:25;102974.63;;;1.57;100.00
27040;BME280;14589;51.578;7.306;2024-01-27T03:19:56;102975.50;;;1.59;100.00
27040;BME280;14589;51.578;7.306;2024-01-27T03:22:26;102991.59;;;1.56;100.00
27040;BME280;14589;51.578;7.306;2024-01-27T03:24:57;102988.94;;;1.55;100.00
27040;BME280;14589;51.578;7.306;2024-01-27T03:27:27;102987.25;;;1.51;100.00
27040;BME280;14589;51.578;7.306;2024-01-27T03:30:02;102983.72;;;1.50;100.00
27040;BME280;14589;51.578;7.306;2024-01-27T03:32:33;102988.19;;;1.50;100.00
27040;BME280;14589;51.578;7.306;2024-01-27T03:35:04;102983.00;;;1.42;100.00
27040;BME280;14589;51.578;7.306;2024-01-27T03:37:34;102977.91;;;1.32;100.00
27040;BME280;14589;51.578;7.306;2024-01-27T03:40:05;103000.03;;;1.38;100.00
27040;BME280;14589;51.578;7.306;2024-01-27T03:42:36;102992.88;;;1.39;100.00
27040;BME280;14589;51.578;7.306;2024-01-27T03:45:07;102995.50;;;1.42;100.00
27040;BME280;14589;51.578;7.306;2024-01-27T03:47:37;102990.31;;;1.36;100.00
27040;BME280;14589;51.578;7.306;2024-01-27T03:50:08;102980.53;;;1.33;100.00
27040;BME280;14589;51.578;7.306;2024-01-27T03:52:38;102992.13;;;1.34;100.00
27040;BME280;14589;51.578;7.306;2024-01-27T03:55:08;103010.81;;;1.35;100.00
27040;BME280;14589;51.578;7.306;2024-01-27T03:57:39;103011.59;;;1.39;100.00
27040;BME280;14589;51.578;7.306;2024-01-27T04:00:10;102992.97;;;1.36;100.00
27040;BME280;14589;51.578;7.306;2024-01-27T04:02:42;102997.34;;;1.38;100.00
27040;BME280;14589;51.578;7.306;2024-01-27T04:05:12;102993.03;;;1.33;100.00
27040;BME280;14589;51.578;7.306;2024-01-27T04:07:43;103000.00;;;1.40;100.00
27040;BME280;14589;51.578;7.306;2024-01-27T04:10:13;103014.34;;;1.36;100.00
27040;BME280;14589;51.578;7.306;2024-01-27T04:12:44;103012.50;;;1.38;100.00
27040;BME280;14589;51.578;7.306;2024-01-27T04:15:14;103009.91;;;1.35;100.00
27040;BME280;14589;51.578;7.306;2024-01-27T04:17:44;103019.63;;;1.39;100.00
27040;BME280;14589;51.578;7.306;2024-01-27T04:20:15;103011.59;;;1.39;100.00
27040;BME280;14589;51.578;7.306;2024-01-27T04:22:45;103005.53;;;1.31;100.00
27040;BME280;14589;51.578;7.306;2024-01-27T04:25:16;103008.16;;;1.34;100.00
27040;BME280;14589;51.578;7.306;2024-01-27T04:27:46;103005.41;;;1.37;100.00
27040;BME280;14589;51.578;7.306;2024-01-27T04:30:16;102998.31;;;1.36;100.00
27040;BME280;14589;51.578;7.306;2024-01-27T04:32:47;103011.50;;;1.43;100.00
27040;BME280;14589;51.578;7.306;2024-01-27T04:35:19;103007.09;;;1.41;100.00
27040;BME280;14589;51.578;7.306;2024-01-27T04:37:49;103002.69;;;1.40;100.00
27040;BME280;14589;51.578;7.306;2024-01-27T04:40:21;103012.41;;;1.42;100.00
27040;BME280;14589;51.578;7.306;2024-01-27T04:42:51;103021.38;;;1.40;100.00
27040;BME280;14589;51.578;7.306;2024-01-27T04:45:22;103020.56;;;1.36;100.00
27040;BME280;14589;51.578;7.306;2024-01-27T04:47:53;103028.53;;;1.39;100.00
27040;BME280;14589;51.578;7.306;2024-01-27T04:50:23;103024.19;;;1.34;100.00
27040;BME280;14589;51.578;7.306;2024-01-27T04:52:54;103017.88;;;1.36;100.00
27040;BME280;14589;51.578;7.306;2024-01-27T04:55:24;103028.66;;;1.33;100.00
27040;BME280;14589;51.578;7.306;2024-01-27T04:57:55;103019.66;;;1.37;100.00
27040;BME280;14589;51.578;7.306;2024-01-27T05:00:25;103018.00;;;1.32;100.00
27040;BME280;14589;51.578;7.306;2024-01-27T05:02:57;103008.19;;;1.32;100.00
27040;BME280;14589;51.578;7.306;2024-01-27T05:05:30;103025.09;;;1.33;100.00
27040;BME280;14589;51.578;7.306;2024-01-27T05:08:00;103028.69;;;1.30;100.00
27040;BME280;14589;51.578;7.306;2024-01-27T05:10:30;103018.16;;;1.24;100.00
27040;BME280;14589;51.578;7.306;2024-01-27T05:13:01;103019.94;;;1.23;100.00
27040;BME280;14589;51.578;7.306;2024-01-27T05:15:31;103027.09;;;1.23;100.00
27040;BME280;14589;51.578;7.306;2024-01-27T05:18:02;103027.03;;;1.26;100.00
27040;BME280;14589;51.578;7.306;2024-01-27T05:20:32;103015.59;;;1.19;100.00
27040;BME280;14589;51.578;7.306;2024-01-27T05:23:02;103020.03;;;1.19;100.00
27040;BME280;14589;51.578;7.306;2024-01-27T05:25:33;103013.75;;;1.23;100.00
27040;BME280;14589;51.578;7.306;2024-01-27T05:28:04;103020.78;;;1.26;100.00
27040;BME280;14589;51.578;7.306;2024-01-27T05:30:34;103003.09;;;1.20;100.00
27040;BME280;14589;51.578;7.306;2024-01-27T05:33:04;103015.44;;;1.26;100.00
27040;BME280;14589;51.578;7.306;2024-01-27T05:35:35;103016.47;;;1.20;100.00
27040;BME280;14589;51.578;7.306;2024-01-27T05:38:05;103024.47;;;1.21;100.00
27040;BME280;14589;51.578;7.306;2024-01-27T05:40:35;103020.00;;;1.22;100.00
27040;BME280;14589;51.578;7.306;2024-01-27T05:43:06;103017.41;;;1.17;100.00
27040;BME280;14589;51.578;7.306;2024-01-27T05:45:36;103016.44;;;1.21;100.00
27040;BME280;14589;51.578;7.306;2024-01-27T05:48:07;103021.88;;;1.17;100.00
27040;BME280;14589;51.578;7.306;2024-01-27T05:50:42;103015.69;;;1.15;100.00
27040;BME280;14589;51.578;7.306;2024-01-27T05:53:12;103014.91;;;1.10;100.00
27040;BME280;14589;51.578;7.306;2024-01-27T05:55:42;103022.81;;;1.14;100.00
27040;BME280;14589;51.578;7.306;2024-01-27T05:58:13;103031.75;;;1.13;100.00
27040;BME280;14589;51.578;7.306;2024-01-27T06:00:44;103043.31;;;1.14;100.00
27040;BME280;14589;51.578;7.306;2024-01-27T06:03:14;103047.00;;;1.08;100.00
27040;BME280;14589;51.578;7.306;2024-01-27T06:05:45;103025.75;;;1.02;100.00
27040;BME280;14589;51.578;7.306;2024-01-27T06:08:15;103030.16;;;1.05;100.00
27040;BME280;14589;51.578;7.306;2024-01-27T06:10:47;103036.41;;;1.04;100.00
27040;BME280;14589;51.578;7.306;2024-01-27T06:13:18;103032.78;;;1.06;100.00
27040;BME280;14589;51.578;7.306;2024-01-27T06:15:48;103039.16;;;0.99;100.00
27040;BME280;14589;51.578;7.306;2024-01-27T06:18:18;103053.44;;;0.98;100.00
27040;BME280;14589;51.578;7.306;2024-01-27T06:20:49;103048.28;;;0.88;100.00
27040;BME280;14589;51.578;7.306;2024-01-27T06:23:19;103057.22;;;0.87;100.00
27040;BME280;14589;51.578;7.306;2024-01-27T06:25:49;103059.94;;;0.85;100.00
27040;BME280;14589;51.578;7.306;2024-01-27T06:28:20;103057.38;;;0.79;100.00
27040;BME280;14589;51.578;7.306;2024-01-27T06:30:50;103064.53;;;0.75;100.00
27040;BME280;14589;51.578;7.306;2024-01-27T06:33:21;103052.19;;;0.71;100.00
27040;BME280;14589;51.578;7.306;2024-01-27T06:35:51;103054.84;;;0.71;100.00
27040;BME280;14589;51.578;7.306;2024-01-27T06:38:22;103055.84;;;0.66;100.00
27040;BME280;14589;51.578;7.306;2024-01-27T06:40:53;103055.88;;;0.64;100.00
27040;BME280;14589;51.578;7.306;2024-01-27T06:43:23;103061.19;;;0.66;100.00
27040;BME280;14589;51.578;7.306;2024-01-27T06:45:54;103063.88;;;0.63;100.00
27040;BME280;14589;51.578;7.306;2024-01-27T06:48:26;103060.50;;;0.55;100.00
27040;BME280;14589;51.578;7.306;2024-01-27T06:50:57;103047.22;;;0.50;100.00
27040;BME280;14589;51.578;7.306;2024-01-27T06:53:27;103061.44;;;0.51;100.00
27040;BME280;14589;51.578;7.306;2024-01-27T06:55:57;103075.66;;;0.53;100.00
27040;BME280;14589;51.578;7.306;2024-01-27T06:58:28;103066.06;;;0.43;100.00
27040;BME280;14589;51.578;7.306;2024-01-27T07:00:58;103076.63;;;0.49;100.00
27040;BME280;14589;51.578;7.306;2024-01-27T07:03:28;103070.44;;;0.45;100.00
27040;BME280;14589;51.578;7.306;2024-01-27T07:05:59;103080.31;;;0.40;100.00
27040;BME280;14589;51.578;7.306;2024-01-27T07:08:32;103088.28;;;0.43;100.00
27040;BME280;14589;51.578;7.306;2024-01-27T07:11:03;103104.31;;;0.42;100.00
27040;BME280;14589;51.578;7.306;2024-01-27T07:13:33;103100.00;;;0.33;100.00
27040;BME280;14589;51.578;7.306;2024-01-27T07:16:04;103101.84;;;0.29;100.00
27040;BME280;14589;51.578;7.306;2024-01-27T07:18:35;103108.09;;;0.28;100.00
27040;BME280;14589;51.578;7.306;2024-01-27T07:21:05;103116.13;;;0.25;100.00
27040;BME280;14589;51.578;7.306;2024-01-27T07:23:36;103109.97;;;0.23;100.00
27040;BME280;14589;51.578;7.306;2024-01-27T07:26:08;103111.78;;;0.20;100.00
27040;BME280;14589;51.578;7.306;2024-01-27T07:28:39;103102.97;;;0.15;100.00
27040;BME280;14589;51.578;7.306;2024-01-27T07:31:10;103094.16;;;0.10;100.00
27040;BME280;14589;51.578;7.306;2024-01-27T07:33:41;103114.53;;;0.14;100.00
27040;BME280;14589;51.578;7.306;2024-01-27T07:36:11;103105.66;;;0.13;100.00
27040;BME280;14589;51.578;7.306;2024-01-27T07:38:42;103101.19;;;0.14;100.00
27040;BME280;14589;51.578;7.306;2024-01-27T07:41:12;103098.63;;;0.09;100.00
27040;BME280;14589;51.578;7.306;2024-01-27T07:43:43;103086.19;;;0.07;100.00
27040;BME280;14589;51.578;7.306;2024-01-27T07:46:14;103110.97;;;0.13;100.00
27040;BME280;14589;51.578;7.306;2024-01-27T07:48:44;103091.50;;;0.08;100.00
27040;BME280;14589;51.578;7.306;2024-01-27T07:51:15;103100.28;;;0.16;100.00
27040;BME280;14589;51.578;7.306;2024-01-27T07:53:46;103094.88;;;0.19;100.00
27040;BME280;14589;51.578;7.306;2024-01-27T07:56:16;103103.66;;;0.27;100.00
27040;BME280;14589;51.578;7.306;2024-01-27T07:58:46;103101.69;;;0.38;100.00
27040;BME280;14589;51.578;7.306;2024-01-27T08:01:18;103105.13;;;0.47;100.00
27040;BME280;14589;51.578;7.306;2024-01-27T08:03:48;103104.00;;;0.60;100.00
27040;BME280;14589;51.578;7.306;2024-01-27T08:06:27;103106.47;;;0.72;100.00
27040;BME280;14589;51.578;7.306;2024-01-27T08:08:57;103107.13;;;0.83;100.00
27040;BME280;14589;51.578;7.306;2024-01-27T08:11:28;103119.28;;;0.99;100.00
27040;BME280;14589;51.578;7.306;2024-01-27T08:13:58;103107.53;;;1.09;100.00
27040;BME280;14589;51.578;7.306;2024-01-27T08:16:28;103110.78;;;1.23;100.00
27040;BME280;14589;51.578;7.306;2024-01-27T08:18:59;103116.69;;;1.41;100.00
27040;BME280;14589;51.578;7.306;2024-01-27T08:21:29;103118.16;;;1.55;100.00
27040;BME280;14589;51.578;7.306;2024-01-27T08:23:59;103124.88;;;1.75;100.00
27040;BME280;14589;51.578;7.306;2024-01-27T08:26:30;103114.88;;;1.84;100.00
27040;BME280;14589;51.578;7.306;2024-01-27T08:29:00;103120.53;;;2.09;100.00
27040;BME280;14589;51.578;7.306;2024-01-27T08:31:31;103121.19;;;2.19;100.00
27040;BME280;14589;51.578;7.306;2024-01-27T08:34:01;103119.97;;;2.32;100.00
27040;BME280;14589;51.578;7.306;2024-01-27T08:36:32;103131.00;;;2.55;100.00
27040;BME280;14589;51.578;7.306;2024-01-27T08:39:04;103115.69;;;2.60;100.00
27040;BME280;14589;51.578;7.306;2024-01-27T08:41:37;103117.16;;;2.72;100.00
27040;BME280;14589;51.578;7.306;2024-01-27T08:44:08;103125.72;;;2.86;100.00
27040;BME280;14589;51.578;7.306;2024-01-27T08:46:38;103120.19;;;2.94;100.00
27040;BME280;14589;51.578;7.306;2024-01-27T08:49:09;103118.78;;;3.11;100.00
27040;BME280;14589;51.578;7.306;2024-01-27T08:51:39;103117.53;;;3.24;100.00
27040;BME280;14589;51.578;7.306;2024-01-27T08:54:10;103108.25;;;3.36;100.00
27040;BME280;14589;51.578;7.306;2024-01-27T08:56:40;103104.53;;;3.42;100.00
27040;BME280;14589;51.578;7.306;2024-01-27T08:59:11;103096.47;;;3.42;100.00
27040;BME280;14589;51.578;7.306;2024-01-27T09:01:42;103122.00;;;3.55;100.00
27040;BME280;14589;51.578;7.306;2024-01-27T09:04:12;103108.41;;;3.61;100.00
27040;BME280;14589;51.578;7.306;2024-01-27T09:06:43;103124.38;;;3.65;100.00
27040;BME280;14589;51.578;7.306;2024-01-27T09:09:13;103127.53;;;3.80;100.00
27040;BME280;14589;51.578;7.306;2024-01-27T09:11:43;103122.75;;;3.89;100.00
27040;BME280;14589;51.578;7.306;2024-01-27T09:14:16;103129.19;;;4.13;100.00
27040;BME280;14589;51.578;7.306;2024-01-27T09:16:46;103118.13;;;4.22;100.00
27040;BME280;14589;51.578;7.306;2024-01-27T09:19:17;103135.50;;;4.38;100.00
27040;BME280;14589;51.578;7.306;2024-01-27T09:21:47;103119.06;;;4.49;100.00
27040;BME280;14589;51.578;7.306;2024-01-27T09:24:19;103129.25;;;4.64;100.00
27040;BME280;14589;51.578;7.306;2024-01-27T09:26:49;103124.56;;;4.71;99.26
27040;BME280;14589;51.578;7.306;2024-01-27T09:29:20;103136.44;;;4.90;97.42
27040;BME280;14589;51.578;7.306;2024-01-27T09:31:50;103135.00;;;4.80;94.49
27040;BME280;14589;51.578;7.306;2024-01-27T09:34:21;103138.69;;;5.02;96.41
27040;BME280;14589;51.578;7.306;2024-01-27T09:36:51;103139.19;;;5.13;94.99
27040;BME280;14589;51.578;7.306;2024-01-27T09:39:21;103144.13;;;5.25;95.69
27040;BME280;14589;51.578;7.306;2024-01-27T09:41:54;103150.25;;;5.31;92.31
27040;BME280;14589;51.578;7.306;2024-01-27T09:44:25;103147.56;;;5.31;92.56
27040;BME280;14589;51.578;7.306;2024-01-27T09:46:57;103132.50;;;5.25;90.71
27040;BME280;14589;51.578;7.306;2024-01-27T09:49:28;103131.81;;;5.43;89.72
27040;BME280;14589;51.578;7.306;2024-01-27T09:51:59;103126.63;;;5.62;90.80
27040;BME280;14589;51.578;7.306;2024-01-27T09:54:29;103131.00;;;5.89;88.21
27040;BME280;14589;51.578;7.306;2024-01-27T09:57:01;103140.94;;;6.11;87.21
27040;BME280;14589;51.578;7.306;2024-01-27T09:59:33;103137.63;;;6.26;85.04
27040;BME280;14589;51.578;7.306;2024-01-27T10:02:06;103147.72;;;6.21;84.54
27040;BME280;14589;51.578;7.306;2024-01-27T10:04:40;103136.56;;;6.30;85.07
27040;BME280;14589;51.578;7.306;2024-01-27T10:07:11;103122.72;;;6.39;83.83
27040;BME280;14589;51.578;7.306;2024-01-27T10:09:42;103127.78;;;6.46;83.45
27040;BME280;14589;51.578;7.306;2024-01-27T10:12:13;103123.44;;;6.64;83.22
27040;BME280;14589;51.578;7.306;2024-01-27T10:14:45;103134.38;;;6.81;81.99
27040;BME280;14589;51.578;7.306;2024-01-27T10:17:21;103126.59;;;6.96;80.24
27040;BME280;14589;51.578;7.306;2024-01-27T10:20:04;103143.31;;;7.04;79.82
27040;BME280;14589;51.578;7.306;2024-01-27T10:22:38;103141.16;;;7.12;79.82
27040;BME280;14589;51.578;7.306;2024-01-27T10:25:09;103151.88;;;7.13;79.83
27040;BME280;14589;51.578;7.306;2024-01-27T10:27:40;103138.41;;;7.13;78.63
27040;BME280;14589;51.578;7.306;2024-01-27T10:30:16;103129.44;;;7.13;77.33
27040;BME280;14589;51.578;7.306;2024-01-27T10:32:55;103129.53;;;7.30;79.09
27040;BME280;14589;51.578;7.306;2024-01-27T10:35:26;103150.97;;;7.53;77.10
27040;BME280;14589;51.578;7.306;2024-01-27T10:37:56;103141.25;;;7.69;74.04
27040;BME280;14589;51.578;7.306;2024-01-27T10:40:27;103145.72;;;7.89;75.47
27040;BME280;14589;51.578;7.306;2024-01-27T10:45:40;103143.00;;;7.70;76.01
27040;BME280;14589;51.578;7.306;2024-01-27T10:48:10;103139.16;;;7.95;73.94
27040;BME280;14589;51.578;7.306;2024-01-27T10:50:42;103128.63;;;8.26;72.92
27040;BME280;14589;51.578;7.306;2024-01-27T10:53:22;103135.19;;;8.39;71.91
27040;BME280;14589;51.578;7.306;2024-01-27T10:55:58;103137.22;;;8.53;70.88
27040;BME280;14589;51.578;7.306;2024-01-27T10:58:29;103129.19;;;8.51;69.24
27040;BME280;14589;51.578;7.306;2024-01-27T11:01:01;103125.72;;;8.84;69.20
27040;BME280;14589;51.578;7.306;2024-01-27T11:03:32;103124.75;;;8.13;68.25
27040;BME280;14589;51.578;7.306;2024-01-27T11:06:04;103121.94;;;8.52;69.77
27040;BME280;14589;51.578;7.306;2024-01-27T11:08:36;103122.00;;;8.86;68.19
27040;BME280;14589;51.578;7.306;2024-01-27T11:11:07;103133.94;;;9.17;65.77
27040;BME280;14589;51.578;7.306;2024-01-27T11:13:38;103132.88;;;9.02;67.84
27040;BME280;14589;51.578;7.306;2024-01-27T11:16:15;103129.22;;;9.20;64.77
27040;BME280;14589;51.578;7.306;2024-01-27T11:18:48;103112.72;;;9.42;65.21
27040;BME280;14589;51.578;7.306;2024-01-27T11:21:18;103123.56;;;9.58;63.12
27040;BME280;14589;51.578;7.306;2024-01-27T11:23:50;103126.00;;;9.47;63.32
27040;BME280;14589;51.578;7.306;2024-01-27T11:26:21;103126.88;;;9.47;65.81
27040;BME280;14589;51.578;7.306;2024-01-27T11:28:52;103120.91;;;9.73;63.85
27040;BME280;14589;51.578;7.306;2024-01-27T11:31:23;103133.78;;;10.01;61.12
27040;BME280;14589;51.578;7.306;2024-01-27T11:33:53;103130.25;;;10.17;59.13
27040;BME280;14589;51.578;7.306;2024-01-27T11:36:24;103148.09;;;10.52;58.20
27040;BME280;14589;51.578;7.306;2024-01-27T11:38:55;103136.72;;;10.61;58.80
27040;BME280;14589;51.578;7.306;2024-01-27T11:41:27;103129.25;;;10.65;58.12
27040;BME280;14589;51.578;7.306;2024-01-27T11:43:58;103114.50;;;10.39;58.34
27040;BME280;14589;51.578;7.306;2024-01-27T11:46:32;103131.00;;;9.87;60.53
27040;BME280;14589;51.578;7.306;2024-01-27T11:49:03;103138.25;;;10.02;61.52
27040;BME280;14589;51.578;7.306;2024-01-27T11:51:34;103131.47;;;10.11;59.40
27040;BME280;14589;51.578;7.306;2024-01-27T11:54:05;103131.28;;;10.45;57.74
27040;BME280;14589;51.578;7.306;2024-01-27T11:56:35;103111.50;;;10.59;57.56
27040;BME280;14589;51.578;7.306;2024-01-27T11:59:06;103122.66;;;10.84;57.06
27040;BME280;14589;51.578;7.306;2024-01-27T12:01:36;103109.97;;;10.99;55.16
27040;BME280;14589;51.578;7.306;2024-01-27T12:04:07;103108.22;;;10.23;59.16
27040;BME280;14589;51.578;7.306;2024-01-27T12:06:39;103113.97;;;10.32;59.20
27040;BME280;14589;51.578;7.306;2024-01-27T12:09:10;103112.31;;;10.75;56.23
27040;BME280;14589;51.578;7.306;2024-01-27T12:11:44;103102.47;;;10.59;55.83
27040;BME280;14589;51.578;7.306;2024-01-27T12:14:16;103110.09;;;10.52;57.74
27040;BME280;14589;51.578;7.306;2024-01-27T12:16:47;103116.28;;;10.24;58.88
27040;BME280;14589;51.578;7.306;2024-01-27T12:19:17;103118.56;;;10.62;56.50
27040;BME280;14589;51.578;7.306;2024-01-27T12:21:48;103117.28;;;10.53;55.54
27040;BME280;14589;51.578;7.306;2024-01-27T12:24:19;103113.78;;;10.67;55.19
27040;BME280;14589;51.578;7.306;2024-01-27T12:26:49;103128.56;;;10.61;56.30
27040;BME280;14589;51.578;7.306;2024-01-27T12:29:20;103117.13;;;10.40;56.07
27040;BME280;14589;51.578;7.306;2024-01-27T12:31:51;103129.91;;;10.38;57.59
27040;BME280;14589;51.578;7.306;2024-01-27T12:34:21;103127.97;;;10.25;58.39
27040;BME280;14589;51.578;7.306;2024-01-27T12:36:52;103130.78;;;10.23;58.26
27040;BME280;14589;51.578;7.306;2024-01-27T12:39:23;103135.06;;;10.27;58.03
27040;BME280;14589;51.578;7.306;2024-01-27T12:41:53;103133.72;;;10.50;57.22
27040;BME280;14589;51.578;7.306;2024-01-27T12:44:24;103128.69;;;10.28;57.01
27040;BME280;14589;51.578;7.306;2024-01-27T12:46:54;103121.66;;;10.08;57.16
27040;BME280;14589;51.578;7.306;2024-01-27T12:49:24;103112.06;;;9.70;59.11
27040;BME280;14589;51.578;7.306;2024-01-27T12:51:55;103110.97;;;9.41;58.15
27040;BME280;14589;51.578;7.306;2024-01-27T12:54:25;103108.50;;;9.37;59.76
27040;BME280;14589;51.578;7.306;2024-01-27T12:56:56;103118.16;;;9.25;59.99
27040;BME280;14589;51.578;7.306;2024-01-27T12:59:26;103119.75;;;9.29;58.79
27040;BME280;14589;51.578;7.306;2024-01-27T13:01:57;103135.19;;;9.27;60.71
27040;BME280;14589;51.578;7.306;2024-01-27T13:04:27;103138.75;;;9.27;59.09
27040;BME280;14589;51.578;7.306;2024-01-27T13:06:58;103121.44;;;8.97;60.43
27040;BME280;14589;51.578;7.306;2024-01-27T13:09:28;103129.53;;;8.97;60.86
27040;BME280;14589;51.578;7.306;2024-01-27T13:11:58;103120.16;;;8.70;62.03
27040;BME280;14589;51.578;7.306;2024-01-27T13:14:29;103107.97;;;8.61;61.63